sensor_id;sensor_type;location;lat;lon;timestamp;P1;durP1;ratioP1;P2;durP2;ratioP2
33573;SDS011;20085;50.832;4.392;2022-08-02T00:01:43;5.60;;;2.70;;
33573;SDS011;20085;50.832;4.392;2022-08-02T00:04:09;10.38;;;3.40;;
33573;SDS011;20085;50.832;4.392;2022-08-02T00:06:36;6.35;;;2.80;;
33573;SDS011;20085;50.832;4.392;2022-08-02T00:09:02;9.70;;;2.95;;
33573;SDS011;20085;50.832;4.392;2022-08-02T00:11:29;7.78;;;3.08;;
33573;SDS011;20085;50.832;4.392;2022-08-02T00:13:55;7.53;;;3.10;;
33573;SDS011;20085;50.832;4.392;2022-08-02T00:16:21;8.63;;;3.17;;
33573;SDS011;20085;50.832;4.392;2022-08-02T00:18:47;7.13;;;2.95;;
33573;SDS011;20085;50.832;4.392;2022-08-02T00:21:12;7.15;;;2.88;;
33573;SDS011;20085;50.832;4.392;2022-08-02T00:23:38;7.30;;;3.03;;
33573;SDS011;20085;50.832;4.392;2022-08-02T00:26:04;6.07;;;2.60;;
33573;SDS011;20085;50.832;4.392;2022-08-02T00:28:29;11.38;;;3.35;;
33573;SDS011;20085;50.832;4.392;2022-08-02T00:30:56;7.50;;;3.13;;
33573;SDS011;20085;50.832;4.392;2022-08-02T00:33:22;8.05;;;2.90;;
33573;SDS011;20085;50.832;4.392;2022-08-02T00:35:48;9.77;;;2.90;;
33573;SDS011;20085;50.832;4.392;2022-08-02T00:38:13;8.00;;;2.67;;
33573;SDS011;20085;50.832;4.392;2022-08-02T00:40:39;7.75;;;2.72;;
33573;SDS011;20085;50.832;4.392;2022-08-02T00:43:06;10.40;;;2.80;;
33573;SDS011;20085;50.832;4.392;2022-08-02T00:45:33;13.90;;;3.63;;
33573;SDS011;20085;50.832;4.392;2022-08-02T00:48:00;8.30;;;3.15;;
33573;SDS011;20085;50.832;4.392;2022-08-02T00:50:26;9.38;;;3.47;;
33573;SDS011;20085;50.832;4.392;2022-08-02T00:52:52;5.00;;;2.70;;
33573;SDS011;20085;50.832;4.392;2022-08-02T00:55:19;6.30;;;2.63;;
33573;SDS011;20085;50.832;4.392;2022-08-02T00:57:45;8.95;;;3.58;;
33573;SDS011;20085;50.832;4.392;2022-08-02T01:00:11;8.88;;;3.58;;
33573;SDS011;20085;50.832;4.392;2022-08-02T01:02:37;11.07;;;3.30;;
33573;SDS011;20085;50.832;4.392;2022-08-02T01:05:03;7.18;;;3.40;;
33573;SDS011;20085;50.832;4.392;2022-08-02T01:07:29;8.82;;;3.08;;
33573;SDS011;20085;50.832;4.392;2022-08-02T01:09:54;7.38;;;2.90;;
33573;SDS011;20085;50.832;4.392;2022-08-02T01:12:20;8.38;;;3.08;;
33573;SDS011;20085;50.832;4.392;2022-08-02T01:14:47;10.90;;;3.53;;
33573;SDS011;20085;50.832;4.392;2022-08-02T01:20:30;7.88;;;3.63;;
33573;SDS011;20085;50.832;4.392;2022-08-02T01:37:06;8.07;;;3.33;;
33573;SDS011;20085;50.832;4.392;2022-08-02T01:39:42;8.05;;;3.40;;
33573;SDS011;20085;50.832;4.392;2022-08-02T01:42:09;11.00;;;3.65;;
33573;SDS011;20085;50.832;4.392;2022-08-02T01:44:37;7.10;;;3.53;;
33573;SDS011;20085;50.832;4.392;2022-08-02T01:47:10;10.40;;;3.72;;
33573;SDS011;20085;50.832;4.392;2022-08-02T01:49:41;14.60;;;4.15;;
33573;SDS011;20085;50.832;4.392;2022-08-02T01:52:10;8.35;;;3.00;;
33573;SDS011;20085;50.832;4.392;2022-08-02T01:54:51;7.90;;;3.40;;
33573;SDS011;20085;50.832;4.392;2022-08-02T01:57:31;8.32;;;3.30;;
33573;SDS011;20085;50.832;4.392;2022-08-02T02:00:05;8.43;;;3.30;;
33573;SDS011;20085;50.832;4.392;2022-08-02T02:02:36;6.22;;;3.53;;
33573;SDS011;20085;50.832;4.392;2022-08-02T02:05:06;8.85;;;3.33;;
33573;SDS011;20085;50.832;4.392;2022-08-02T02:07:35;7.40;;;3.38;;
33573;SDS011;20085;50.832;4.392;2022-08-02T02:10:03;6.70;;;3.15;;
33573;SDS011;20085;50.832;4.392;2022-08-02T02:12:30;7.32;;;3.42;;
33573;SDS011;20085;50.832;4.392;2022-08-02T02:14:58;8.85;;;3.60;;
33573;SDS011;20085;50.832;4.392;2022-08-02T02:17:26;6.78;;;3.40;;
33573;SDS011;20085;50.832;4.392;2022-08-02T02:19:53;8.40;;;3.35;;
33573;SDS011;20085;50.832;4.392;2022-08-02T02:22:21;8.45;;;3.50;;
33573;SDS011;20085;50.832;4.392;2022-08-02T02:24:47;8.43;;;3.40;;
33573;SDS011;20085;50.832;4.392;2022-08-02T02:27:13;6.57;;;3.67;;
33573;SDS011;20085;50.832;4.392;2022-08-02T02:29:42;8.95;;;3.38;;
33573;SDS011;20085;50.832;4.392;2022-08-02T02:32:10;7.78;;;3.65;;
33573;SDS011;20085;50.832;4.392;2022-08-02T02:34:41;10.00;;;3.85;;
33573;SDS011;20085;50.832;4.392;2022-08-02T02:37:13;10.60;;;3.60;;
33573;SDS011;20085;50.832;4.392;2022-08-02T02:39:42;7.65;;;3.67;;
33573;SDS011;20085;50.832;4.392;2022-08-02T02:42:10;7.50;;;3.63;;
33573;SDS011;20085;50.832;4.392;2022-08-02T02:44:38;10.95;;;4.10;;
33573;SDS011;20085;50.832;4.392;2022-08-02T02:47:05;7.70;;;3.83;;
33573;SDS011;20085;50.832;4.392;2022-08-02T02:49:33;7.30;;;3.70;;
33573;SDS011;20085;50.832;4.392;2022-08-02T02:52:01;6.20;;;3.75;;
33573;SDS011;20085;50.832;4.392;2022-08-02T02:54:28;9.63;;;4.07;;
33573;SDS011;20085;50.832;4.392;2022-08-02T02:56:54;8.38;;;3.60;;
33573;SDS011;20085;50.832;4.392;2022-08-02T02:59:22;9.40;;;4.05;;
33573;SDS011;20085;50.832;4.392;2022-08-02T03:01:48;9.60;;;4.03;;
33573;SDS011;20085;50.832;4.392;2022-08-02T03:04:14;9.13;;;4.13;;
33573;SDS011;20085;50.832;4.392;2022-08-02T03:06:40;8.45;;;4.00;;
33573;SDS011;20085;50.832;4.392;2022-08-02T03:09:06;7.63;;;4.03;;
33573;SDS011;20085;50.832;4.392;2022-08-02T03:11:35;9.65;;;4.20;;
33573;SDS011;20085;50.832;4.392;2022-08-02T03:14:02;7.15;;;3.85;;
33573;SDS011;20085;50.832;4.392;2022-08-02T03:16:29;7.45;;;4.15;;
33573;SDS011;20085;50.832;4.392;2022-08-02T03:18:56;7.72;;;4.30;;
33573;SDS011;20085;50.832;4.392;2022-08-02T03:21:25;8.85;;;4.53;;
33573;SDS011;20085;50.832;4.392;2022-08-02T03:23:51;10.05;;;5.20;;
33573;SDS011;20085;50.832;4.392;2022-08-02T03:26:16;9.57;;;5.00;;
33573;SDS011;20085;50.832;4.392;2022-08-02T03:28:42;8.88;;;4.90;;
33573;SDS011;20085;50.832;4.392;2022-08-02T03:31:08;9.65;;;4.53;;
33573;SDS011;20085;50.832;4.392;2022-08-02T03:33:34;9.82;;;4.90;;
33573;SDS011;20085;50.832;4.392;2022-08-02T03:36:10;9.10;;;4.45;;
33573;SDS011;20085;50.832;4.392;2022-08-02T03:38:39;7.50;;;4.53;;
33573;SDS011;20085;50.832;4.392;2022-08-02T03:41:06;7.72;;;4.60;;
33573;SDS011;20085;50.832;4.392;2022-08-02T03:43:34;9.80;;;4.13;;
33573;SDS011;20085;50.832;4.392;2022-08-02T03:46:02;7.82;;;4.55;;
33573;SDS011;20085;50.832;4.392;2022-08-02T03:48:29;12.75;;;4.72;;
33573;SDS011;20085;50.832;4.392;2022-08-02T03:50:56;10.05;;;4.70;;
33573;SDS011;20085;50.832;4.392;2022-08-02T03:53:22;7.15;;;4.63;;
33573;SDS011;20085;50.832;4.392;2022-08-02T03:55:49;9.27;;;5.20;;
33573;SDS011;20085;50.832;4.392;2022-08-02T03:58:19;12.20;;;5.75;;
33573;SDS011;20085;50.832;4.392;2022-08-02T04:00:46;12.70;;;4.85;;
33573;SDS011;20085;50.832;4.392;2022-08-02T04:03:12;8.82;;;5.32;;
33573;SDS011;20085;50.832;4.392;2022-08-02T04:05:38;11.15;;;5.43;;
33573;SDS011;20085;50.832;4.392;2022-08-02T04:08:04;12.07;;;5.78;;
33573;SDS011;20085;50.832;4.392;2022-08-02T04:10:30;8.07;;;5.30;;
33573;SDS011;20085;50.832;4.392;2022-08-02T04:12:56;11.27;;;5.30;;
33573;SDS011;20085;50.832;4.392;2022-08-02T04:15:22;12.75;;;5.80;;
33573;SDS011;20085;50.832;4.392;2022-08-02T04:17:50;13.60;;;6.15;;
33573;SDS011;20085;50.832;4.392;2022-08-02T04:20:21;10.35;;;5.50;;
33573;SDS011;20085;50.832;4.392;2022-08-02T04:22:54;10.32;;;5.55;;
33573;SDS011;20085;50.832;4.392;2022-08-02T04:25:24;11.45;;;5.22;;
33573;SDS011;20085;50.832;4.392;2022-08-02T04:27:51;17.00;;;5.78;;
33573;SDS011;20085;50.832;4.392;2022-08-02T04:30:17;11.18;;;5.72;;
33573;SDS011;20085;50.832;4.392;2022-08-02T04:32:44;13.00;;;5.63;;
33573;SDS011;20085;50.832;4.392;2022-08-02T04:35:10;13.95;;;5.57;;
33573;SDS011;20085;50.832;4.392;2022-08-02T04:37:37;10.35;;;5.20;;
33573;SDS011;20085;50.832;4.392;2022-08-02T04:40:13;12.13;;;5.60;;
33573;SDS011;20085;50.832;4.392;2022-08-02T04:42:39;13.57;;;5.55;;
33573;SDS011;20085;50.832;4.392;2022-08-02T04:45:06;18.75;;;5.40;;
33573;SDS011;20085;50.832;4.392;2022-08-02T04:47:32;12.70;;;5.15;;
33573;SDS011;20085;50.832;4.392;2022-08-02T04:49:58;9.20;;;5.25;;
33573;SDS011;20085;50.832;4.392;2022-08-02T04:52:24;11.70;;;4.95;;
33573;SDS011;20085;50.832;4.392;2022-08-02T04:54:49;9.90;;;5.00;;
33573;SDS011;20085;50.832;4.392;2022-08-02T04:57:15;12.77;;;5.65;;
33573;SDS011;20085;50.832;4.392;2022-08-02T05:00:01;9.88;;;5.70;;
33573;SDS011;20085;50.832;4.392;2022-08-02T05:02:27;10.68;;;5.10;;
33573;SDS011;20085;50.832;4.392;2022-08-02T05:04:53;11.93;;;5.32;;
33573;SDS011;20085;50.832;4.392;2022-08-02T05:07:18;11.38;;;5.70;;
33573;SDS011;20085;50.832;4.392;2022-08-02T05:09:44;13.63;;;5.40;;
33573;SDS011;20085;50.832;4.392;2022-08-02T05:12:09;12.15;;;5.28;;
33573;SDS011;20085;50.832;4.392;2022-08-02T05:14:35;12.45;;;5.80;;
33573;SDS011;20085;50.832;4.392;2022-08-02T05:17:01;11.85;;;6.00;;
33573;SDS011;20085;50.832;4.392;2022-08-02T05:19:26;12.73;;;6.00;;
33573;SDS011;20085;50.832;4.392;2022-08-02T05:21:52;12.35;;;6.30;;
33573;SDS011;20085;50.832;4.392;2022-08-02T05:24:18;14.60;;;6.93;;
33573;SDS011;20085;50.832;4.392;2022-08-02T05:26:43;13.02;;;6.30;;
33573;SDS011;20085;50.832;4.392;2022-08-02T05:29:09;12.80;;;6.55;;
33573;SDS011;20085;50.832;4.392;2022-08-02T05:31:34;13.73;;;7.05;;
33573;SDS011;20085;50.832;4.392;2022-08-02T05:34:00;12.65;;;6.93;;
33573;SDS011;20085;50.832;4.392;2022-08-02T05:36:25;14.55;;;7.05;;
33573;SDS011;20085;50.832;4.392;2022-08-02T05:38:51;17.17;;;7.80;;
33573;SDS011;20085;50.832;4.392;2022-08-02T05:41:17;13.77;;;7.05;;
33573;SDS011;20085;50.832;4.392;2022-08-02T05:43:44;15.93;;;7.63;;
33573;SDS011;20085;50.832;4.392;2022-08-02T05:46:10;15.15;;;7.13;;
33573;SDS011;20085;50.832;4.392;2022-08-02T05:48:35;14.10;;;7.28;;
33573;SDS011;20085;50.832;4.392;2022-08-02T05:51:02;16.42;;;8.25;;
33573;SDS011;20085;50.832;4.392;2022-08-02T06:01:32;14.80;;;9.50;;
33573;SDS011;20085;50.832;4.392;2022-08-02T06:04:00;17.27;;;9.25;;
33573;SDS011;20085;50.832;4.392;2022-08-02T06:06:31;17.30;;;9.30;;
33573;SDS011;20085;50.832;4.392;2022-08-02T06:08:58;23.33;;;8.90;;
33573;SDS011;20085;50.832;4.392;2022-08-02T06:11:52;15.18;;;8.98;;
33573;SDS011;20085;50.832;4.392;2022-08-02T06:14:17;19.75;;;8.93;;
33573;SDS011;20085;50.832;4.392;2022-08-02T06:16:46;14.00;;;8.43;;
33573;SDS011;20085;50.832;4.392;2022-08-02T06:19:15;14.77;;;8.25;;
33573;SDS011;20085;50.832;4.392;2022-08-02T06:21:43;27.02;;;8.00;;
33573;SDS011;20085;50.832;4.392;2022-08-02T06:24:10;17.23;;;7.97;;
33573;SDS011;20085;50.832;4.392;2022-08-02T06:26:37;17.05;;;7.50;;
33573;SDS011;20085;50.832;4.392;2022-08-02T06:29:03;14.77;;;6.75;;
33573;SDS011;20085;50.832;4.392;2022-08-02T06:31:29;15.40;;;7.38;;
33573;SDS011;20085;50.832;4.392;2022-08-02T06:33:55;13.95;;;6.75;;
33573;SDS011;20085;50.832;4.392;2022-08-02T06:39:07;11.65;;;5.82;;
33573;SDS011;20085;50.832;4.392;2022-08-02T06:41:53;12.40;;;5.75;;
33573;SDS011;20085;50.832;4.392;2022-08-02T06:44:23;15.10;;;5.88;;
33573;SDS011;20085;50.832;4.392;2022-08-02T06:46:49;17.15;;;4.82;;
33573;SDS011;20085;50.832;4.392;2022-08-02T06:49:15;8.98;;;4.20;;
33573;SDS011;20085;50.832;4.392;2022-08-02T06:51:42;10.07;;;3.78;;
33573;SDS011;20085;50.832;4.392;2022-08-02T06:54:07;9.20;;;3.92;;
33573;SDS011;20085;50.832;4.392;2022-08-02T06:56:33;13.68;;;4.07;;
33573;SDS011;20085;50.832;4.392;2022-08-02T06:58:59;11.35;;;3.80;;
33573;SDS011;20085;50.832;4.392;2022-08-02T07:01:25;10.75;;;3.60;;
33573;SDS011;20085;50.832;4.392;2022-08-02T07:03:50;10.38;;;3.30;;
33573;SDS011;20085;50.832;4.392;2022-08-02T07:06:16;7.88;;;3.55;;
33573;SDS011;20085;50.832;4.392;2022-08-02T07:08:42;10.23;;;3.92;;
33573;SDS011;20085;50.832;4.392;2022-08-02T07:11:08;8.00;;;3.67;;
33573;SDS011;20085;50.832;4.392;2022-08-02T07:13:34;6.88;;;3.30;;
33573;SDS011;20085;50.832;4.392;2022-08-02T07:16:00;9.32;;;4.18;;
33573;SDS011;20085;50.832;4.392;2022-08-02T07:18:27;8.80;;;3.53;;
33573;SDS011;20085;50.832;4.392;2022-08-02T07:20:53;10.55;;;3.35;;
33573;SDS011;20085;50.832;4.392;2022-08-02T07:23:18;8.25;;;3.47;;
33573;SDS011;20085;50.832;4.392;2022-08-02T07:25:44;9.45;;;3.60;;
33573;SDS011;20085;50.832;4.392;2022-08-02T07:28:11;9.18;;;3.72;;
33573;SDS011;20085;50.832;4.392;2022-08-02T07:30:39;8.13;;;3.28;;
33573;SDS011;20085;50.832;4.392;2022-08-02T07:33:06;6.57;;;3.13;;
33573;SDS011;20085;50.832;4.392;2022-08-02T07:35:31;9.93;;;3.38;;
33573;SDS011;20085;50.832;4.392;2022-08-02T07:37:57;13.38;;;3.50;;
33573;SDS011;20085;50.832;4.392;2022-08-02T07:40:23;8.82;;;4.13;;
33573;SDS011;20085;50.832;4.392;2022-08-02T07:42:50;10.63;;;3.67;;
33573;SDS011;20085;50.832;4.392;2022-08-02T07:45:17;10.35;;;3.22;;
33573;SDS011;20085;50.832;4.392;2022-08-02T07:47:44;7.75;;;3.20;;
33573;SDS011;20085;50.832;4.392;2022-08-02T07:50:10;9.52;;;3.30;;
33573;SDS011;20085;50.832;4.392;2022-08-02T07:52:38;11.40;;;3.20;;
33573;SDS011;20085;50.832;4.392;2022-08-02T07:55:04;10.80;;;2.80;;
33573;SDS011;20085;50.832;4.392;2022-08-02T07:57:30;9.77;;;3.08;;
33573;SDS011;20085;50.832;4.392;2022-08-02T07:59:57;6.93;;;2.60;;
33573;SDS011;20085;50.832;4.392;2022-08-02T08:02:22;9.73;;;2.80;;
33573;SDS011;20085;50.832;4.392;2022-08-02T08:04:51;8.40;;;2.60;;
33573;SDS011;20085;50.832;4.392;2022-08-02T08:07:17;5.70;;;2.55;;
33573;SDS011;20085;50.832;4.392;2022-08-02T08:09:44;12.07;;;2.70;;
33573;SDS011;20085;50.832;4.392;2022-08-02T08:12:11;7.78;;;2.53;;
33573;SDS011;20085;50.832;4.392;2022-08-02T08:14:37;5.63;;;2.00;;
33573;SDS011;20085;50.832;4.392;2022-08-02T08:17:03;13.57;;;2.45;;
33573;SDS011;20085;50.832;4.392;2022-08-02T08:19:30;7.82;;;2.30;;
33573;SDS011;20085;50.832;4.392;2022-08-02T08:21:56;4.63;;;2.03;;
33573;SDS011;20085;50.832;4.392;2022-08-02T08:24:24;7.32;;;2.38;;
33573;SDS011;20085;50.832;4.392;2022-08-02T08:26:50;7.63;;;2.20;;
33573;SDS011;20085;50.832;4.392;2022-08-02T08:29:16;6.60;;;2.20;;
33573;SDS011;20085;50.832;4.392;2022-08-02T08:31:42;6.72;;;2.28;;
33573;SDS011;20085;50.832;4.392;2022-08-02T08:34:08;6.03;;;2.30;;
33573;SDS011;20085;50.832;4.392;2022-08-02T08:36:34;7.38;;;2.70;;
33573;SDS011;20085;50.832;4.392;2022-08-02T08:38:59;8.43;;;2.63;;
33573;SDS011;20085;50.832;4.392;2022-08-02T08:41:25;6.60;;;2.70;;
33573;SDS011;20085;50.832;4.392;2022-08-02T08:43:51;6.95;;;2.83;;
33573;SDS011;20085;50.832;4.392;2022-08-02T08:46:23;5.97;;;2.47;;
33573;SDS011;20085;50.832;4.392;2022-08-02T08:48:58;9.10;;;2.65;;
33573;SDS011;20085;50.832;4.392;2022-08-02T08:51:26;5.50;;;2.57;;
33573;SDS011;20085;50.832;4.392;2022-08-02T08:53:56;8.23;;;2.88;;
33573;SDS011;20085;50.832;4.392;2022-08-02T08:56:27;5.55;;;2.50;;
33573;SDS011;20085;50.832;4.392;2022-08-02T08:58:59;9.60;;;2.72;;
33573;SDS011;20085;50.832;4.392;2022-08-02T09:01:25;7.55;;;2.30;;
33573;SDS011;20085;50.832;4.392;2022-08-02T09:03:50;7.70;;;2.42;;
33573;SDS011;20085;50.832;4.392;2022-08-02T09:06:16;6.68;;;2.50;;
33573;SDS011;20085;50.832;4.392;2022-08-02T09:08:42;5.88;;;2.38;;
33573;SDS011;20085;50.832;4.392;2022-08-02T09:11:12;9.15;;;2.47;;
33573;SDS011;20085;50.832;4.392;2022-08-02T09:13:40;7.68;;;2.53;;
33573;SDS011;20085;50.832;4.392;2022-08-02T09:16:14;9.18;;;2.40;;
33573;SDS011;20085;50.832;4.392;2022-08-02T09:18:41;8.15;;;2.70;;
33573;SDS011;20085;50.832;4.392;2022-08-02T09:21:09;11.57;;;2.55;;
33573;SDS011;20085;50.832;4.392;2022-08-02T09:23:36;11.45;;;3.08;;
33573;SDS011;20085;50.832;4.392;2022-08-02T09:26:07;7.80;;;2.40;;
33573;SDS011;20085;50.832;4.392;2022-08-02T09:28:35;8.02;;;2.70;;
33573;SDS011;20085;50.832;4.392;2022-08-02T09:31:10;5.55;;;2.42;;
33573;SDS011;20085;50.832;4.392;2022-08-02T09:33:38;8.27;;;2.47;;
33573;SDS011;20085;50.832;4.392;2022-08-02T09:36:08;6.60;;;1.92;;
33573;SDS011;20085;50.832;4.392;2022-08-02T09:38:36;5.72;;;2.13;;
33573;SDS011;20085;50.832;4.392;2022-08-02T09:41:03;6.05;;;2.40;;
33573;SDS011;20085;50.832;4.392;2022-08-02T09:43:42;7.40;;;2.42;;
33573;SDS011;20085;50.832;4.392;2022-08-02T09:46:18;10.73;;;2.30;;
33573;SDS011;20085;50.832;4.392;2022-08-02T09:48:49;8.45;;;2.38;;
33573;SDS011;20085;50.832;4.392;2022-08-02T09:51:16;7.70;;;2.30;;
33573;SDS011;20085;50.832;4.392;2022-08-02T09:53:51;8.50;;;2.40;;
33573;SDS011;20085;50.832;4.392;2022-08-02T09:56:21;6.97;;;2.45;;
33573;SDS011;20085;50.832;4.392;2022-08-02T09:58:49;11.15;;;2.42;;
33573;SDS011;20085;50.832;4.392;2022-08-02T10:01:32;12.75;;;2.25;;
33573;SDS011;20085;50.832;4.392;2022-08-02T10:03:59;10.10;;;2.20;;
33573;SDS011;20085;50.832;4.392;2022-08-02T10:06:29;10.75;;;2.47;;
33573;SDS011;20085;50.832;4.392;2022-08-02T10:08:56;6.30;;;2.50;;
33573;SDS011;20085;50.832;4.392;2022-08-02T10:11:22;8.55;;;2.40;;
33573;SDS011;20085;50.832;4.392;2022-08-02T10:13:49;8.60;;;1.85;;
33573;SDS011;20085;50.832;4.392;2022-08-02T10:16:17;10.07;;;2.20;;
33573;SDS011;20085;50.832;4.392;2022-08-02T10:18:45;6.40;;;2.33;;
33573;SDS011;20085;50.832;4.392;2022-08-02T10:26:38;8.82;;;2.55;;
33573;SDS011;20085;50.832;4.392;2022-08-02T10:29:06;10.98;;;2.28;;
33573;SDS011;20085;50.832;4.392;2022-08-02T10:31:35;7.38;;;2.15;;
33573;SDS011;20085;50.832;4.392;2022-08-02T10:34:12;8.07;;;2.22;;
33573;SDS011;20085;50.832;4.392;2022-08-02T10:36:41;9.45;;;2.00;;
33573;SDS011;20085;50.832;4.392;2022-08-02T10:39:09;4.43;;;1.88;;
33573;SDS011;20085;50.832;4.392;2022-08-02T10:41:48;7.20;;;2.22;;
33573;SDS011;20085;50.832;4.392;2022-08-02T10:44:19;4.10;;;2.03;;
33573;SDS011;20085;50.832;4.392;2022-08-02T10:46:45;5.78;;;2.30;;
33573;SDS011;20085;50.832;4.392;2022-08-02T10:49:12;6.53;;;2.00;;
33573;SDS011;20085;50.832;4.392;2022-08-02T10:56:55;9.30;;;2.17;;
33573;SDS011;20085;50.832;4.392;2022-08-02T11:01:51;9.73;;;2.30;;
33573;SDS011;20085;50.832;4.392;2022-08-02T11:04:25;4.18;;;2.03;;
33573;SDS011;20085;50.832;4.392;2022-08-02T11:07:05;7.03;;;2.35;;
33573;SDS011;20085;50.832;4.392;2022-08-02T11:09:31;8.88;;;2.10;;
33573;SDS011;20085;50.832;4.392;2022-08-02T11:12:10;3.33;;;1.75;;
33573;SDS011;20085;50.832;4.392;2022-08-02T11:14:38;5.22;;;1.88;;
33573;SDS011;20085;50.832;4.392;2022-08-02T11:17:12;7.05;;;1.77;;
33573;SDS011;20085;50.832;4.392;2022-08-02T11:22:29;3.97;;;2.00;;
33573;SDS011;20085;50.832;4.392;2022-08-02T11:24:55;6.25;;;1.63;;
33573;SDS011;20085;50.832;4.392;2022-08-02T11:27:21;5.18;;;2.03;;
33573;SDS011;20085;50.832;4.392;2022-08-02T11:29:46;6.20;;;1.70;;
33573;SDS011;20085;50.832;4.392;2022-08-02T11:32:22;4.10;;;1.70;;
33573;SDS011;20085;50.832;4.392;2022-08-02T11:34:49;6.10;;;2.25;;
33573;SDS011;20085;50.832;4.392;2022-08-02T11:37:27;7.78;;;2.00;;
33573;SDS011;20085;50.832;4.392;2022-08-02T11:39:59;5.43;;;1.80;;
33573;SDS011;20085;50.832;4.392;2022-08-02T11:42:32;6.95;;;2.00;;
33573;SDS011;20085;50.832;4.392;2022-08-02T11:44:59;3.83;;;1.60;;
33573;SDS011;20085;50.832;4.392;2022-08-02T11:47:24;5.05;;;1.88;;
33573;SDS011;20085;50.832;4.392;2022-08-02T11:49:50;5.00;;;1.80;;
33573;SDS011;20085;50.832;4.392;2022-08-02T11:52:16;5.43;;;1.60;;
33573;SDS011;20085;50.832;4.392;2022-08-02T11:54:42;9.82;;;2.05;;
33573;SDS011;20085;50.832;4.392;2022-08-02T11:59:41;4.05;;;1.80;;
33573;SDS011;20085;50.832;4.392;2022-08-02T12:02:07;5.68;;;1.77;;
33573;SDS011;20085;50.832;4.392;2022-08-02T12:04:34;5.40;;;1.90;;
33573;SDS011;20085;50.832;4.392;2022-08-02T12:07:01;4.75;;;1.70;;
33573;SDS011;20085;50.832;4.392;2022-08-02T12:09:28;8.23;;;1.50;;
33573;SDS011;20085;50.832;4.392;2022-08-02T12:11:55;7.50;;;2.00;;
33573;SDS011;20085;50.832;4.392;2022-08-02T12:14:23;4.70;;;1.80;;
33573;SDS011;20085;50.832;4.392;2022-08-02T12:16:50;7.53;;;1.80;;
33573;SDS011;20085;50.832;4.392;2022-08-02T12:19:37;6.10;;;2.00;;
33573;SDS011;20085;50.832;4.392;2022-08-02T12:22:14;6.70;;;1.67;;
33573;SDS011;20085;50.832;4.392;2022-08-02T12:24:45;3.50;;;1.60;;
33573;SDS011;20085;50.832;4.392;2022-08-02T12:27:29;4.68;;;1.80;;
33573;SDS011;20085;50.832;4.392;2022-08-02T12:30:09;5.60;;;1.55;;
33573;SDS011;20085;50.832;4.392;2022-08-02T12:32:42;5.93;;;1.60;;
33573;SDS011;20085;50.832;4.392;2022-08-02T12:37:37;4.65;;;1.83;;
33573;SDS011;20085;50.832;4.392;2022-08-02T12:45:46;4.47;;;1.50;;
33573;SDS011;20085;50.832;4.392;2022-08-02T12:51:22;4.00;;;1.90;;
33573;SDS011;20085;50.832;4.392;2022-08-02T12:54:10;4.88;;;1.80;;
33573;SDS011;20085;50.832;4.392;2022-08-02T12:56:45;4.18;;;1.50;;
33573;SDS011;20085;50.832;4.392;2022-08-02T12:59:11;3.88;;;1.50;;
33573;SDS011;20085;50.832;4.392;2022-08-02T13:01:37;3.20;;;1.48;;
33573;SDS011;20085;50.832;4.392;2022-08-02T13:04:03;4.72;;;1.60;;
33573;SDS011;20085;50.832;4.392;2022-08-02T13:06:30;3.83;;;1.70;;
33573;SDS011;20085;50.832;4.392;2022-08-02T13:08:56;2.75;;;1.45;;
33573;SDS011;20085;50.832;4.392;2022-08-02T13:11:25;4.07;;;1.60;;
33573;SDS011;20085;50.832;4.392;2022-08-02T13:13:51;4.78;;;1.75;;
33573;SDS011;20085;50.832;4.392;2022-08-02T13:16:16;4.70;;;1.63;;
33573;SDS011;20085;50.832;4.392;2022-08-02T13:18:42;4.18;;;1.50;;
33573;SDS011;20085;50.832;4.392;2022-08-02T13:21:09;3.60;;;1.50;;
33573;SDS011;20085;50.832;4.392;2022-08-02T13:23:38;2.72;;;1.60;;
33573;SDS011;20085;50.832;4.392;2022-08-02T13:26:04;3.63;;;1.30;;
33573;SDS011;20085;50.832;4.392;2022-08-02T13:28:30;4.45;;;1.95;;
33573;SDS011;20085;50.832;4.392;2022-08-02T13:30:56;4.85;;;1.55;;
33573;SDS011;20085;50.832;4.392;2022-08-02T13:33:21;3.25;;;1.52;;
33573;SDS011;20085;50.832;4.392;2022-08-02T13:35:47;4.05;;;1.58;;
33573;SDS011;20085;50.832;4.392;2022-08-02T13:38:14;3.78;;;1.48;;
33573;SDS011;20085;50.832;4.392;2022-08-02T13:40:39;4.53;;;1.70;;
33573;SDS011;20085;50.832;4.392;2022-08-02T13:45:50;9.10;;;1.55;;
33573;SDS011;20085;50.832;4.392;2022-08-02T13:48:15;7.88;;;1.45;;
33573;SDS011;20085;50.832;4.392;2022-08-02T13:50:41;7.88;;;1.45;;
33573;SDS011;20085;50.832;4.392;2022-08-02T13:53:07;7.35;;;1.60;;
33573;SDS011;20085;50.832;4.392;2022-08-02T13:55:32;4.90;;;1.40;;
33573;SDS011;20085;50.832;4.392;2022-08-02T13:57:59;6.05;;;1.65;;
33573;SDS011;20085;50.832;4.392;2022-08-02T14:00:25;3.75;;;1.38;;
33573;SDS011;20085;50.832;4.392;2022-08-02T14:02:51;5.20;;;1.55;;
33573;SDS011;20085;50.832;4.392;2022-08-02T14:05:16;3.38;;;1.30;;
33573;SDS011;20085;50.832;4.392;2022-08-02T14:07:42;5.07;;;1.30;;
33573;SDS011;20085;50.832;4.392;2022-08-02T14:10:08;4.20;;;1.60;;
33573;SDS011;20085;50.832;4.392;2022-08-02T14:12:33;4.53;;;1.30;;
33573;SDS011;20085;50.832;4.392;2022-08-02T14:14:59;6.43;;;1.40;;
33573;SDS011;20085;50.832;4.392;2022-08-02T14:17:25;7.93;;;1.40;;
33573;SDS011;20085;50.832;4.392;2022-08-02T14:19:50;4.35;;;1.30;;
33573;SDS011;20085;50.832;4.392;2022-08-02T14:22:16;8.48;;;1.38;;
33573;SDS011;20085;50.832;4.392;2022-08-02T14:24:42;4.35;;;1.23;;
33573;SDS011;20085;50.832;4.392;2022-08-02T14:27:08;3.25;;;1.20;;
33573;SDS011;20085;50.832;4.392;2022-08-02T14:29:34;5.90;;;1.30;;
33573;SDS011;20085;50.832;4.392;2022-08-02T14:31:59;8.52;;;1.52;;
33573;SDS011;20085;50.832;4.392;2022-08-02T14:34:25;7.40;;;1.67;;
33573;SDS011;20085;50.832;4.392;2022-08-02T14:36:52;8.15;;;1.40;;
33573;SDS011;20085;50.832;4.392;2022-08-02T14:39:19;4.93;;;1.60;;
33573;SDS011;20085;50.832;4.392;2022-08-02T14:41:44;10.05;;;1.60;;
33573;SDS011;20085;50.832;4.392;2022-08-02T14:44:10;8.63;;;1.70;;
33573;SDS011;20085;50.832;4.392;2022-08-02T14:46:37;8.35;;;1.45;;
33573;SDS011;20085;50.832;4.392;2022-08-02T14:49:05;6.22;;;1.67;;
33573;SDS011;20085;50.832;4.392;2022-08-02T14:51:32;5.65;;;1.48;;
33573;SDS011;20085;50.832;4.392;2022-08-02T14:53:59;5.65;;;1.20;;
33573;SDS011;20085;50.832;4.392;2022-08-02T14:56:26;5.72;;;1.33;;
33573;SDS011;20085;50.832;4.392;2022-08-02T14:58:52;5.50;;;1.60;;
33573;SDS011;20085;50.832;4.392;2022-08-02T15:01:18;5.57;;;1.60;;
33573;SDS011;20085;50.832;4.392;2022-08-02T15:03:44;4.95;;;1.35;;
33573;SDS011;20085;50.832;4.392;2022-08-02T15:06:09;8.25;;;1.80;;
33573;SDS011;20085;50.832;4.392;2022-08-02T15:08:35;5.68;;;1.52;;
33573;SDS011;20085;50.832;4.392;2022-08-02T15:11:01;4.35;;;1.48;;
33573;SDS011;20085;50.832;4.392;2022-08-02T15:13:26;5.75;;;1.50;;
33573;SDS011;20085;50.832;4.392;2022-08-02T15:15:52;4.85;;;1.50;;
33573;SDS011;20085;50.832;4.392;2022-08-02T15:18:17;4.30;;;1.30;;
33573;SDS011;20085;50.832;4.392;2022-08-02T15:20:43;6.80;;;1.20;;
33573;SDS011;20085;50.832;4.392;2022-08-02T15:23:10;7.25;;;1.15;;
33573;SDS011;20085;50.832;4.392;2022-08-02T15:25:39;6.00;;;1.35;;
33573;SDS011;20085;50.832;4.392;2022-08-02T15:28:05;6.93;;;1.40;;
33573;SDS011;20085;50.832;4.392;2022-08-02T15:30:35;5.43;;;1.45;;
33573;SDS011;20085;50.832;4.392;2022-08-02T15:33:01;10.02;;;1.50;;
33573;SDS011;20085;50.832;4.392;2022-08-02T15:35:30;5.25;;;1.52;;
33573;SDS011;20085;50.832;4.392;2022-08-02T15:37:56;5.65;;;1.30;;
33573;SDS011;20085;50.832;4.392;2022-08-02T15:40:22;5.88;;;1.45;;
33573;SDS011;20085;50.832;4.392;2022-08-02T15:42:48;5.93;;;1.42;;
33573;SDS011;20085;50.832;4.392;2022-08-02T15:45:14;7.88;;;1.60;;
33573;SDS011;20085;50.832;4.392;2022-08-02T15:47:40;7.15;;;2.20;;